Erin Prairie, Wisconsin
Current Conditions -  °F | °C
As of 9:55 AM on Wednesday 28 Jan 2015 (Local Time) from KRNH Reporting Station
Haze Haze  
Wind Chill: 16°   Ceiling: 700
Heat Index: 26°   Visibility: 4mi
Dew Point: 23°   Wind: 9mph
Humidity: 88%   Direction: 140°SE
Pressure: 30"   Gusts: NA
Location:  44.9659°N, 92.3734°W
Report Text: KRNH 281555Z AUTO 14008KT 4SM BR OVC007 M03/M05 A3000 RMK AO2 T10351052
Loading
Personal Weather Stations






























Interactive Weather Map New forecast layout! Learn more

10-Day Weather Forecast

Advertisements
Track Severe Weather on mobile